Time;durP1;ratioP1;P1;durP2;ratioP2;P2;SDS_P1;SDS_P2;PMS_P1;PMS_P2;Temp;Humidity;BMP_temperature;BMP_pressure;BME280_temperature;BME280_humidity;BME280_pressure;Samples;Min_cycle;Max_cycle;Signal;HPM_P1;HPM_P2
2022/09/14 00:01:17;;;;;;;9.45;7.28;;;17.00;99.90;;;;;;5031292;28;20017;-72
2022/09/14 00:03:43;;;;;;;9.82;6.50;;;16.70;99.90;;;;;;5018026;28;20075;-72
2022/09/14 00:06:11;;;;;;;7.50;6.30;;;16.70;99.90;;;;;;5021519;28;20065;-73
2022/09/14 00:08:38;;;;;;;7.53;5.68;;;16.90;99.90;;;;;;5021924;28;20029;-72
2022/09/14 00:11:12;;;;;;;10.40;6.05;;;17.00;99.90;;;;;;5026182;28;20479;-71
2022/09/14 00:13:40;;;;;;;7.68;6.40;;;17.00;99.90;;;;;;5019189;28;20037;-70
2022/09/14 00:16:11;;;;;;;5.50;4.13;;;16.90;99.90;;;;;;5019375;28;20052;-71
2022/09/14 00:18:36;;;;;;;8.55;5.20;;;16.80;99.90;;;;;;5063576;22;20046;-70
2022/09/14 00:21:05;;;;;;;8.10;5.43;;;16.90;99.90;;;;;;5039519;28;20047;-70
2022/09/14 00:23:31;;;;;;;5.85;5.25;;;17.10;99.90;;;;;;5032203;28;20030;-71
2022/09/14 00:26:24;;;;;;;8.35;4.90;;;17.30;99.90;;;;;;5032244;28;20028;-71
2022/09/14 00:28:52;;;;;;;7.57;6.32;;;17.20;99.90;;;;;;5030913;28;20419;-72
2022/09/14 00:31:19;;;;;;;7.97;6.40;;;17.00;99.90;;;;;;5042341;28;20021;-74
2022/09/14 00:33:49;;;;;;;8.25;6.10;;;17.00;99.90;;;;;;5038713;28;20479;-74
2022/09/14 00:36:17;;;;;;;10.20;6.10;;;17.10;99.90;;;;;;5050073;28;20032;-73
2022/09/14 00:38:45;;;;;;;7.50;6.40;;;17.10;99.90;;;;;;5058139;28;20025;-73
2022/09/14 00:41:16;;;;;;;7.93;5.60;;;17.20;99.90;;;;;;5054018;28;20025;-72
2022/09/14 00:43:53;;;;;;;6.18;5.35;;;17.30;99.90;;;;;;5032906;28;20109;-72
2022/09/14 00:46:19;;;;;;;6.00;5.40;;;17.30;99.90;;;;;;5046188;28;20025;-74
2022/09/14 00:48:45;;;;;;;10.00;6.32;;;17.30;99.90;;;;;;5048588;28;20453;-74
2022/09/14 00:51:11;;;;;;;7.15;5.43;;;17.40;99.90;;;;;;5052413;28;20021;-73
2022/09/14 00:53:37;;;;;;;8.13;6.50;;;17.20;99.90;;;;;;5045402;28;20024;-72
2022/09/14 00:56:02;;;;;;;8.82;6.30;;;16.90;99.90;;;;;;5042213;28;20394;-73
2022/09/14 00:58:28;;;;;;;8.20;5.75;;;17.10;99.90;;;;;;5036880;28;20041;-72
2022/09/14 01:00:53;;;;;;;6.97;5.28;;;17.10;99.90;;;;;;5031727;28;20105;-73
2022/09/14 01:03:19;;;;;;;6.50;5.80;;;17.00;99.90;;;;;;5031780;28;20033;-72
2022/09/14 01:06:18;;;;;;;6.22;5.63;;;17.10;99.90;;;;;;5031579;28;20659;-73
2022/09/14 01:09:13;;;;;;;6.68;5.63;;;17.20;99.90;;;;;;5033169;28;20028;-73
2022/09/14 01:11:50;;;;;;;10.98;5.53;;;17.20;99.90;;;;;;5035569;28;20109;-73
2022/09/14 01:14:31;;;;;;;7.78;5.50;;;17.20;99.90;;;;;;5042661;28;20480;-73
2022/09/14 01:17:12;;;;;;;5.85;5.20;;;17.20;99.90;;;;;;5031796;28;20392;-74
2022/09/14 01:20:09;;;;;;;10.02;6.05;;;17.20;99.90;;;;;;5031743;28;20372;-73
2022/09/14 01:23:04;;;;;;;8.02;6.15;;;17.20;99.90;;;;;;5044195;28;20488;-73
2022/09/14 01:25:56;;;;;;;7.60;6.70;;;17.30;99.90;;;;;;5027662;28;20089;-73
2022/09/14 01:28:51;;;;;;;8.70;6.63;;;17.10;99.90;;;;;;5031376;28;20028;-72
2022/09/14 01:31:32;;;;;;;6.68;6.00;;;17.10;99.90;;;;;;5031557;28;20625;-72
2022/09/14 01:34:06;;;;;;;6.80;6.03;;;17.10;99.90;;;;;;5045724;28;20031;-72
2022/09/14 01:36:34;;;;;;;7.75;5.85;;;17.10;99.90;;;;;;5046762;28;20082;-72
2022/09/14 01:39:01;;;;;;;7.07;5.60;;;17.20;99.90;;;;;;5049162;28;20022;-72
2022/09/14 01:41:30;;;;;;;5.78;5.13;;;17.20;99.90;;;;;;5054854;28;20036;-72
2022/09/14 01:44:14;;;;;;;7.25;5.38;;;17.10;99.90;;;;;;5044079;28;20025;-72
2022/09/14 01:46:43;;;;;;;5.78;5.20;;;17.10;99.90;;;;;;5050715;28;20245;-71
2022/09/14 01:49:15;;;;;;;6.85;5.65;;;17.00;99.90;;;;;;5049280;28;20463;-73
2022/09/14 01:51:46;;;;;;;8.02;5.03;;;17.00;99.90;;;;;;5035201;28;20602;-72
2022/09/14 01:54:41;;;;;;;6.15;5.55;;;16.90;99.90;;;;;;5035204;28;20021;-72
2022/09/14 01:57:25;;;;;;;10.57;6.55;;;17.00;99.90;;;;;;5034762;28;20032;-72
2022/09/14 01:59:55;;;;;;;9.63;6.35;;;16.90;99.90;;;;;;5035065;28;20068;-73
2022/09/14 02:02:38;;;;;;;6.97;6.28;;;17.00;99.90;;;;;;5035021;28;20075;-72
2022/09/14 02:05:13;;;;;;;7.70;6.28;;;17.00;99.90;;;;;;5034868;28;20041;-72
2022/09/14 02:07:38;;;;;;;7.90;6.00;;;16.90;99.90;;;;;;5034646;28;20026;-73
2022/09/14 02:10:08;;;;;;;9.75;6.63;;;17.00;99.90;;;;;;5037837;28;20036;-73
2022/09/14 02:12:35;;;;;;;9.68;6.57;;;17.00;99.90;;;;;;5044499;28;20057;-72
2022/09/14 02:15:01;;;;;;;7.22;6.00;;;17.00;99.90;;;;;;5048340;28;20086;-73
2022/09/14 02:17:28;;;;;;;8.43;6.63;;;16.90;99.90;;;;;;5034329;28;20101;-74
2022/09/14 02:19:59;;;;;;;6.47;5.72;;;16.90;99.90;;;;;;5048072;28;20041;-74
2022/09/14 02:22:26;;;;;;;9.25;5.30;;;16.80;99.90;;;;;;5045631;28;20074;-74
2022/09/14 02:24:53;;;;;;;7.25;5.28;;;16.90;99.90;;;;;;5048969;28;20013;-73
2022/09/14 02:27:19;;;;;;;6.72;5.22;;;16.90;99.90;;;;;;5043134;28;20108;-74
2022/09/14 02:29:45;;;;;;;9.73;5.45;;;16.90;99.90;;;;;;5056744;28;20457;-74
2022/09/14 02:32:48;;;;;;;6.68;5.15;;;16.80;99.90;;;;;;5047766;28;20048;-75
2022/09/14 02:35:17;;;;;;;8.82;5.50;;;16.80;99.90;;;;;;5034728;28;20037;-75
2022/09/14 02:38:01;;;;;;;7.95;6.15;;;16.80;99.90;;;;;;5053896;28;20505;-75
2022/09/14 02:40:27;;;;;;;7.30;5.97;;;17.00;99.90;;;;;;5054407;28;20021;-74
2022/09/14 02:43:24;;;;;;;7.40;6.15;;;16.70;99.90;;;;;;5033743;28;20360;-75
2022/09/14 02:46:21;;;;;;;10.05;6.28;;;16.80;99.90;;;;;;5034562;28;20030;-75
2022/09/14 02:49:08;;;;;;;7.90;6.20;;;16.70;99.90;;;;;;5042051;28;20470;-74
2022/09/14 02:51:40;;;;;;;9.10;6.28;;;16.80;99.90;;;;;;5041636;28;20047;-75
2022/09/14 02:54:19;;;;;;;10.07;6.68;;;17.10;99.90;;;;;;5039092;28;20541;-75
2022/09/14 02:56:45;;;;;;;7.38;5.90;;;16.80;99.90;;;;;;5040876;28;20033;-74
2022/09/14 02:59:11;;;;;;;8.20;6.20;;;16.80;99.90;;;;;;5040360;28;20102;-74
2022/09/14 03:01:37;;;;;;;7.47;6.22;;;16.80;99.90;;;;;;5040792;28;20025;-75
2022/09/14 03:04:03;;;;;;;6.63;5.93;;;16.80;99.90;;;;;;5046084;28;20056;-74
2022/09/14 03:06:28;;;;;;;9.20;6.28;;;16.80;99.90;;;;;;5033973;28;20419;-72
2022/09/14 03:08:54;;;;;;;7.22;6.00;;;16.80;99.90;;;;;;5033645;28;20037;-73
2022/09/14 03:11:19;;;;;;;6.50;5.75;;;16.70;99.90;;;;;;5047121;28;20390;-72
2022/09/14 03:13:45;;;;;;;7.47;5.68;;;16.60;99.90;;;;;;5041219;28;20028;-72
2022/09/14 03:16:13;;;;;;;7.13;6.40;;;16.60;99.90;;;;;;5052572;28;20083;-73
2022/09/14 03:18:39;;;;;;;8.50;7.07;;;16.70;99.90;;;;;;5043307;28;20037;-72
2022/09/14 03:21:10;;;;;;;8.75;6.10;;;16.70;99.90;;;;;;5046373;28;20020;-72
2022/09/14 03:23:43;;;;;;;9.73;7.03;;;16.70;99.90;;;;;;5032271;28;20025;-71
2022/09/14 03:26:12;;;;;;;7.85;6.75;;;16.70;99.90;;;;;;5046998;28;20032;-73
2022/09/14 03:28:37;;;;;;;9.68;7.70;;;16.70;99.90;;;;;;5032085;28;20030;-72
2022/09/14 03:31:05;;;;;;;8.52;7.63;;;16.80;99.90;;;;;;5048008;28;20497;-72
2022/09/14 03:33:31;;;;;;;9.55;7.05;;;16.60;99.90;;;;;;5043893;28;20029;-72
2022/09/14 03:35:57;;;;;;;13.35;8.52;;;16.40;99.90;;;;;;5039761;28;20034;-74
2022/09/14 03:38:23;;;;;;;7.95;7.00;;;16.40;99.90;;;;;;5043428;28;20025;-74
2022/09/14 03:40:49;;;;;;;11.38;7.60;;;16.30;99.90;;;;;;5048767;28;20071;-72
2022/09/14 03:43:14;;;;;;;12.35;7.93;;;16.40;99.90;;;;;;5043048;28;20434;-72
2022/09/14 03:45:41;;;;;;;9.93;8.60;;;16.50;99.90;;;;;;5031922;28;20449;-73
2022/09/14 03:48:06;;;;;;;13.35;9.35;;;16.40;99.90;;;;;;5041934;28;20447;-72
2022/09/14 03:50:32;;;;;;;9.82;8.77;;;16.30;99.90;;;;;;5043758;28;20108;-74
2022/09/14 03:52:58;;;;;;;17.08;11.45;;;16.30;99.90;;;;;;5033130;28;20637;-74
2022/09/14 03:55:24;;;;;;;15.88;10.65;;;16.30;99.90;;;;;;5033062;28;20042;-74
2022/09/14 03:57:54;;;;;;;13.20;9.85;;;16.30;99.90;;;;;;5032296;28;20445;-74
2022/09/14 04:00:20;;;;;;;17.20;9.10;;;16.20;99.90;;;;;;5031860;28;20032;-74
2022/09/14 04:02:45;;;;;;;11.57;8.52;;;16.30;99.90;;;;;;5040627;28;20032;-74
2022/09/14 04:05:11;;;;;;;10.43;8.77;;;16.40;99.90;;;;;;5050840;28;20021;-74
2022/09/14 04:07:37;;;;;;;12.80;8.13;;;16.80;99.90;;;;;;5039859;28;20070;-73
2022/09/14 04:10:04;;;;;;;13.20;9.02;;;16.50;99.90;;;;;;5049924;28;20090;-74
2022/09/14 04:12:33;;;;;;;13.63;8.60;;;16.60;99.90;;;;;;5041155;28;20017;-75
2022/09/14 04:14:59;;;;;;;13.25;9.93;;;16.60;99.90;;;;;;5035827;28;20160;-74
2022/09/14 04:17:24;;;;;;;14.18;10.73;;;16.60;99.90;;;;;;5032212;28;20108;-74
2022/09/14 04:19:50;;;;;;;12.43;10.20;;;16.50;99.90;;;;;;5048060;28;20035;-75
2022/09/14 04:22:16;;;;;;;12.07;10.32;;;16.60;99.90;;;;;;5051176;28;20043;-73
2022/09/14 04:24:41;;;;;;;12.88;9.95;;;16.70;99.90;;;;;;5035075;28;20044;-74
2022/09/14 04:27:07;;;;;;;14.90;11.70;;;16.70;99.90;;;;;;5043648;28;20033;-75
2022/09/14 04:29:32;;;;;;;16.17;11.85;;;16.70;99.90;;;;;;5034174;28;20028;-73
2022/09/14 04:31:58;;;;;;;20.95;13.70;;;16.70;99.90;;;;;;5051011;28;20021;-72
2022/09/14 04:34:24;;;;;;;21.27;15.20;;;16.70;99.90;;;;;;5037587;28;20059;-73
2022/09/14 04:36:49;;;;;;;21.13;14.60;;;16.60;99.90;;;;;;5043791;28;20037;-74
2022/09/14 04:39:15;;;;;;;19.48;15.38;;;16.60;99.90;;;;;;5048686;28;20029;-72
2022/09/14 04:41:41;;;;;;;18.63;15.60;;;16.40;99.90;;;;;;5062679;28;20104;-73
2022/09/14 04:44:07;;;;;;;22.40;15.90;;;16.30;99.90;;;;;;5035988;28;20654;-74
2022/09/14 04:46:38;;;;;;;18.15;15.38;;;16.30;99.90;;;;;;5035543;28;20053;-72
2022/09/14 04:49:04;;;;;;;19.90;15.80;;;16.20;99.90;;;;;;5042938;28;20079;-72
2022/09/14 04:51:32;;;;;;;20.50;15.25;;;16.20;99.90;;;;;;5032140;28;20029;-74
2022/09/14 04:53:59;;;;;;;19.52;14.80;;;16.20;99.90;;;;;;5049332;28;20108;-73
2022/09/14 04:56:25;;;;;;;16.38;12.98;;;16.20;99.90;;;;;;5039956;28;20491;-73
2022/09/14 04:58:53;;;;;;;12.57;10.73;;;16.30;99.90;;;;;;5044714;28;20056;-74
2022/09/14 05:01:22;;;;;;;14.60;12.75;;;16.20;99.90;;;;;;5042941;28;20070;-75
2022/09/14 05:03:48;;;;;;;14.60;11.35;;;16.30;99.90;;;;;;5033950;28;20021;-75
2022/09/14 05:06:16;;;;;;;16.85;12.18;;;16.30;99.90;;;;;;5043313;28;20104;-75
2022/09/14 05:08:43;;;;;;;13.55;10.57;;;16.40;99.90;;;;;;5035878;28;20083;-75
2022/09/14 05:11:12;;;;;;;12.60;10.93;;;16.70;99.90;;;;;;5038985;28;20037;-75
2022/09/14 05:13:37;;;;;;;13.18;10.95;;;16.40;99.90;;;;;;5043899;28;20036;-74
2022/09/14 05:16:14;;;;;;;14.30;11.85;;;16.50;99.90;;;;;;5031738;28;20030;-75
2022/09/14 05:18:40;;;;;;;13.80;9.98;;;16.60;99.90;;;;;;5037929;28;20483;-75
2022/09/14 05:21:09;;;;;;;13.80;10.57;;;16.60;99.90;;;;;;5037139;28;20021;-75
2022/09/14 05:23:35;;;;;;;15.27;11.27;;;16.60;99.90;;;;;;5038632;28;20025;-75
2022/09/14 05:26:02;;;;;;;12.65;10.43;;;16.60;99.90;;;;;;5037199;28;20028;-74
2022/09/14 05:28:28;;;;;;;14.77;11.18;;;16.70;99.90;;;;;;5043847;28;20088;-74
2022/09/14 05:30:54;;;;;;;14.35;11.85;;;16.70;99.90;;;;;;5044935;28;20021;-74
2022/09/14 05:33:20;;;;;;;14.63;11.25;;;16.70;99.90;;;;;;5037501;28;20021;-75
2022/09/14 05:35:47;;;;;;;13.75;10.68;;;16.70;99.90;;;;;;5039460;28;20700;-75
2022/09/14 05:38:13;;;;;;;14.88;11.85;;;16.70;99.90;;;;;;5042146;28;20061;-75
2022/09/14 05:40:39;;;;;;;13.95;11.77;;;16.70;99.90;;;;;;5045015;28;20078;-76
2022/09/14 05:43:04;;;;;;;17.10;12.90;;;16.70;99.90;;;;;;5037823;28;20040;-75
2022/09/14 05:45:30;;;;;;;25.00;16.55;;;16.70;99.90;;;;;;5050450;28;20036;-75
2022/09/14 05:48:00;;;;;;;15.38;12.70;;;16.70;99.90;;;;;;5038964;28;20028;-75
2022/09/14 05:50:26;;;;;;;17.15;12.25;;;16.70;99.90;;;;;;5038174;28;20541;-75
2022/09/14 05:52:52;;;;;;;16.35;12.40;;;16.90;99.90;;;;;;5042003;28;20029;-74
2022/09/14 05:55:17;;;;;;;15.27;12.02;;;16.70;99.90;;;;;;5046213;28;20040;-75
2022/09/14 05:57:47;;;;;;;17.45;12.88;;;16.80;99.90;;;;;;5041834;28;20510;-74
2022/09/14 06:00:13;;;;;;;20.77;14.10;;;17.00;99.90;;;;;;5043552;28;20394;-75
2022/09/14 06:02:38;;;;;;;18.50;13.70;;;16.90;99.90;;;;;;5038811;28;20116;-74
2022/09/14 06:05:04;;;;;;;17.40;13.23;;;16.90;99.90;;;;;;5037855;28;20130;-75
2022/09/14 06:07:30;;;;;;;16.38;13.68;;;17.00;99.90;;;;;;5042719;28;20620;-75
2022/09/14 06:09:55;;;;;;;16.88;13.93;;;16.90;99.90;;;;;;5044682;28;20035;-75
2022/09/14 06:12:21;;;;;;;16.05;13.32;;;17.00;99.90;;;;;;5038325;28;20043;-75
2022/09/14 06:14:46;;;;;;;22.65;14.07;;;16.80;99.90;;;;;;5037902;28;20036;-75
2022/09/14 06:17:12;;;;;;;15.73;12.77;;;17.00;99.90;;;;;;5042667;28;20018;-75
2022/09/14 06:19:37;;;;;;;20.58;15.57;;;16.80;99.90;;;;;;5046468;28;20115;-75
2022/09/14 06:22:03;;;;;;;19.70;13.95;;;16.60;99.90;;;;;;5034942;28;20382;-75
2022/09/14 06:24:28;;;;;;;17.92;14.10;;;17.00;99.90;;;;;;5036297;28;20023;-75
2022/09/14 06:26:54;;;;;;;17.98;14.18;;;16.90;99.90;;;;;;5046937;28;20025;-74
2022/09/14 06:29:20;;;;;;;20.35;13.95;;;16.70;99.90;;;;;;5049419;28;20027;-75
2022/09/14 06:31:45;;;;;;;21.50;15.55;;;16.70;99.90;;;;;;5047147;28;20434;-75
2022/09/14 06:34:11;;;;;;;17.17;14.88;;;16.70;99.90;;;;;;5035537;28;20483;-74
2022/09/14 06:36:36;;;;;;;15.00;12.68;;;16.80;99.90;;;;;;5054802;28;20104;-75
2022/09/14 06:39:02;;;;;;;19.20;15.07;;;16.90;99.90;;;;;;5040155;28;20705;-75
2022/09/14 06:41:29;;;;;;;16.58;13.93;;;16.90;99.90;;;;;;5041179;28;20566;-75
2022/09/14 06:43:57;;;;;;;15.65;12.50;;;16.90;99.90;;;;;;5039642;28;20056;-74
2022/09/14 06:46:28;;;;;;;17.55;12.65;;;16.90;99.90;;;;;;5041198;28;20035;-75
2022/09/14 06:49:19;;;;;;;15.73;12.25;;;16.80;99.90;;;;;;5037036;28;20108;-76
2022/09/14 06:51:46;;;;;;;15.93;12.93;;;16.90;99.90;;;;;;5049891;28;20021;-75
2022/09/14 06:54:14;;;;;;;18.27;14.02;;;16.90;99.90;;;;;;5039958;28;20453;-75
2022/09/14 06:56:41;;;;;;;18.15;14.23;;;16.90;99.90;;;;;;5047975;28;20032;-75
2022/09/14 06:59:09;;;;;;;20.90;14.75;;;17.00;99.90;;;;;;5039121;28;20532;-75
2022/09/14 07:01:35;;;;;;;17.38;12.60;;;17.00;99.90;;;;;;5040211;28;20029;-76
2022/09/14 07:04:00;;;;;;;13.35;11.95;;;17.00;99.90;;;;;;5039803;28;20025;-75
2022/09/14 07:06:38;;;;;;;17.70;11.80;;;17.10;99.90;;;;;;5040246;28;20057;-75
2022/09/14 07:09:04;;;;;;;15.68;13.18;;;17.10;99.90;;;;;;5040071;28;20053;-74
2022/09/14 07:11:30;;;;;;;22.40;18.02;;;17.10;99.90;;;;;;5051920;28;20032;-75
2022/09/14 07:13:59;;;;;;;19.60;15.55;;;17.20;99.90;;;;;;5045772;28;20052;-75
2022/09/14 07:16:30;;;;;;;21.52;17.00;;;17.20;99.90;;;;;;5044240;28;20025;-76
2022/09/14 07:18:57;;;;;;;23.90;17.55;;;17.10;99.90;;;;;;5035220;28;20033;-75
2022/09/14 07:21:24;;;;;;;24.17;16.35;;;17.00;99.90;;;;;;5037095;28;20021;-75
2022/09/14 07:23:50;;;;;;;18.02;14.27;;;16.90;99.90;;;;;;5049892;28;20101;-75
2022/09/14 07:26:18;;;;;;;20.75;16.08;;;16.80;99.90;;;;;;5039953;28;20099;-75
2022/09/14 07:28:46;;;;;;;23.10;16.83;;;16.70;99.90;;;;;;5048086;28;20513;-75
2022/09/14 07:31:20;;;;;;;30.35;20.13;;;16.70;99.90;;;;;;5037577;28;20125;-75
2022/09/14 07:33:46;;;;;;;18.92;15.05;;;16.70;99.90;;;;;;5042292;28;20029;-76
2022/09/14 07:36:12;;;;;;;19.80;15.43;;;16.90;99.90;;;;;;5042180;28;20507;-75
2022/09/14 07:38:39;;;;;;;26.10;17.70;;;17.00;99.90;;;;;;5037063;28;20045;-74
2022/09/14 07:41:05;;;;;;;20.70;16.70;;;17.00;99.90;;;;;;5048947;28;20384;-75
2022/09/14 07:43:31;;;;;;;17.13;14.75;;;17.00;99.90;;;;;;5044675;28;20108;-75
2022/09/14 07:45:56;;;;;;;29.10;21.65;;;17.10;99.90;;;;;;5053146;28;20100;-74
2022/09/14 07:48:22;;;;;;;21.63;17.52;;;17.20;99.90;;;;;;5041848;28;20104;-75
2022/09/14 07:51:02;;;;;;;18.25;14.38;;;17.20;99.90;;;;;;5046415;28;20025;-75
2022/09/14 07:53:27;;;;;;;17.45;14.15;;;17.20;99.90;;;;;;5045083;28;20032;-74
2022/09/14 07:55:53;;;;;;;14.25;12.63;;;17.20;99.90;;;;;;5038418;28;20025;-74
2022/09/14 07:58:19;;;;;;;17.42;13.32;;;17.30;99.90;;;;;;5039764;28;20037;-75
2022/09/14 08:00:44;;;;;;;19.38;14.65;;;17.10;99.90;;;;;;5041804;28;20032;-74
2022/09/14 08:03:10;;;;;;;17.98;14.93;;;17.00;99.90;;;;;;5053214;28;20060;-74
2022/09/14 08:05:35;;;;;;;22.67;15.65;;;17.00;99.90;;;;;;5039500;28;20021;-75
2022/09/14 08:08:01;;;;;;;16.75;13.45;;;17.20;99.90;;;;;;5051326;28;20379;-75
2022/09/14 08:10:27;;;;;;;18.67;14.18;;;17.30;99.90;;;;;;5047755;28;20502;-75
2022/09/14 08:12:54;;;;;;;17.65;13.57;;;17.30;99.90;;;;;;5040421;28;20041;-75
2022/09/14 08:15:22;;;;;;;20.80;14.32;;;17.40;99.90;;;;;;5046322;28;20033;-76
2022/09/14 08:17:48;;;;;;;18.75;14.38;;;17.40;99.90;;;;;;5044272;28;20368;-75
2022/09/14 08:20:15;;;;;;;17.90;13.80;;;17.60;99.90;;;;;;5046327;28;20100;-75
2022/09/14 08:22:43;;;;;;;14.38;11.52;;;17.40;99.90;;;;;;5032789;28;20021;-75
2022/09/14 08:25:09;;;;;;;13.77;11.10;;;17.60;99.90;;;;;;5054923;28;20391;-75
2022/09/14 08:27:35;;;;;;;16.17;12.27;;;17.80;99.90;;;;;;5037598;28;20112;-75
2022/09/14 08:30:01;;;;;;;14.80;10.90;;;17.60;99.90;;;;;;5044157;28;20510;-75
2022/09/14 08:32:27;;;;;;;16.35;11.50;;;17.80;99.90;;;;;;5044398;28;20033;-75
2022/09/14 08:34:53;;;;;;;15.18;11.70;;;17.90;99.90;;;;;;5039705;28;20505;-75
2022/09/14 08:37:18;;;;;;;14.23;12.30;;;17.80;99.90;;;;;;5039077;28;20025;-75
2022/09/14 08:39:44;;;;;;;13.52;9.93;;;17.90;99.90;;;;;;5045269;28;20026;-75
2022/09/14 08:42:17;;;;;;;13.85;11.18;;;17.90;99.90;;;;;;5045356;28;20445;-75
2022/09/14 08:44:49;;;;;;;15.82;11.43;;;17.50;99.90;;;;;;5039822;28;20017;-75
2022/09/14 08:47:27;;;;;;;12.05;10.07;;;17.70;99.90;;;;;;5045220;28;20033;-75
2022/09/14 08:50:00;;;;;;;12.85;11.18;;;17.70;99.90;;;;;;5042167;28;20058;-75
2022/09/14 08:52:35;;;;;;;15.77;13.25;;;17.40;99.90;;;;;;5038806;28;20485;-75
2022/09/14 08:55:17;;;;;;;17.65;12.55;;;17.40;99.90;;;;;;5039830;28;20064;-75
2022/09/14 08:57:49;;;;;;;14.00;11.02;;;17.50;99.90;;;;;;5039585;28;20037;-75
2022/09/14 09:00:24;;;;;;;13.38;11.05;;;17.70;99.90;;;;;;5038764;28;20502;-75
2022/09/14 09:03:11;;;;;;;13.38;11.25;;;17.80;99.90;;;;;;5042191;28;20026;-75
2022/09/14 09:06:13;;;;;;;11.00;9.88;;;17.90;99.90;;;;;;5045277;28;20108;-75
2022/09/14 09:08:53;;;;;;;12.38;10.43;;;17.80;99.90;;;;;;5023691;28;20045;-75
2022/09/14 09:11:24;;;;;;;11.85;8.20;;;17.90;99.90;;;;;;5051976;28;20112;-75
2022/09/14 09:13:51;;;;;;;12.35;11.05;;;18.10;99.90;;;;;;5031373;28;20025;-75
2022/09/14 09:16:22;;;;;;;14.05;11.63;;;17.90;99.90;;;;;;5044998;28;20029;-75
2022/09/14 09:19:06;;;;;;;14.05;11.30;;;17.40;99.90;;;;;;5037270;28;20036;-75
2022/09/14 09:21:42;;;;;;;11.48;10.35;;;17.40;99.90;;;;;;5037198;28;20025;-75
2022/09/14 09:24:19;;;;;;;15.38;13.77;;;17.50;99.90;;;;;;5040604;28;20053;-75
2022/09/14 09:26:44;;;;;;;15.65;12.57;;;17.50;99.90;;;;;;5045260;28;20053;-75
2022/09/14 09:29:10;;;;;;;22.13;17.55;;;17.40;99.90;;;;;;5044250;28;20123;-75
2022/09/14 09:31:47;;;;;;;18.75;16.80;;;17.60;99.90;;;;;;5045724;28;20036;-75
2022/09/14 09:34:15;;;;;;;16.48;14.73;;;17.30;99.90;;;;;;5044745;28;20518;-75
2022/09/14 09:36:45;;;;;;;17.38;14.23;;;17.30;99.90;;;;;;5044323;28;20080;-74
2022/09/14 09:39:11;;;;;;;19.73;16.23;;;17.30;99.90;;;;;;5047790;28;20072;-75
2022/09/14 09:42:04;;;;;;;17.83;15.40;;;17.20;99.90;;;;;;5063094;28;20479;-75
2022/09/14 09:44:54;;;;;;;16.38;14.63;;;17.20;99.90;;;;;;5038097;28;20072;-75
2022/09/14 09:47:36;;;;;;;19.42;17.38;;;17.20;99.90;;;;;;5037875;28;20025;-75
2022/09/14 09:50:25;;;;;;;18.50;15.30;;;17.30;99.90;;;;;;5043061;28;20025;-74
2022/09/14 09:52:53;;;;;;;18.40;16.60;;;17.30;99.90;;;;;;5058424;28;20032;-75
2022/09/14 09:55:21;;;;;;;18.77;16.80;;;17.50;99.90;;;;;;5052404;28;20501;-75
2022/09/14 09:57:46;;;;;;;19.17;15.68;;;17.60;99.90;;;;;;5043429;28;20040;-75
2022/09/14 10:00:12;;;;;;;17.00;15.30;;;17.50;99.90;;;;;;5041975;28;20093;-75
2022/09/14 10:02:39;;;;;;;18.60;16.80;;;17.40;99.90;;;;;;5050624;28;20063;-75
2022/09/14 10:05:08;;;;;;;19.00;16.48;;;17.50;99.90;;;;;;5036618;28;20491;-74
2022/09/14 10:07:38;;;;;;;24.85;22.25;;;17.50;99.90;;;;;;5046449;28;20112;-75
2022/09/14 10:10:10;;;;;;;22.02;19.73;;;17.60;99.90;;;;;;5048622;28;20021;-75
2022/09/14 10:12:38;;;;;;;26.33;23.52;;;17.60;99.90;;;;;;5045606;28;20025;-74
2022/09/14 10:15:13;;;;;;;28.48;25.30;;;17.70;99.90;;;;;;5051474;28;20533;-74
2022/09/14 10:17:39;;;;;;;25.10;22.42;;;17.60;99.90;;;;;;5047010;28;20032;-75
2022/09/14 10:20:06;;;;;;;26.35;22.83;;;17.60;99.90;;;;;;5040375;28;20028;-75
2022/09/14 10:22:33;;;;;;;29.15;24.80;;;17.70;99.90;;;;;;5049226;28;20497;-75
2022/09/14 10:25:24;;;;;;;24.73;21.98;;;17.80;99.90;;;;;;5049179;28;20112;-75
2022/09/14 10:27:55;;;;;;;27.25;21.70;;;17.90;99.90;;;;;;5045882;28;20119;-75
2022/09/14 10:30:24;;;;;;;20.13;17.90;;;17.90;99.90;;;;;;5044731;28;20087;-75
2022/09/14 10:32:54;;;;;;;18.75;16.63;;;17.90;99.90;;;;;;5047848;28;20021;-75
2022/09/14 10:35:21;;;;;;;19.80;17.30;;;17.90;99.90;;;;;;5045675;28;20040;-74
2022/09/14 10:38:09;;;;;;;21.75;18.30;;;17.90;99.90;;;;;;5039694;28;20067;-74
2022/09/14 10:40:38;;;;;;;17.88;16.08;;;17.80;99.90;;;;;;5040017;28;20475;-76
2022/09/14 10:43:13;;;;;;;17.23;15.27;;;17.90;99.90;;;;;;5058076;28;20352;-74
2022/09/14 10:45:48;;;;;;;15.60;14.00;;;17.90;99.90;;;;;;5051825;28;20402;-75
2022/09/14 10:48:31;;;;;;;16.30;14.43;;;17.90;99.90;;;;;;5043017;28;20028;-74
2022/09/14 10:51:24;;;;;;;15.65;14.07;;;17.80;99.90;;;;;;5042587;28;20021;-75
2022/09/14 10:54:09;;;;;;;17.38;14.68;;;17.80;99.90;;;;;;5039207;28;20079;-75
2022/09/14 10:57:04;;;;;;;18.50;16.33;;;17.80;99.90;;;;;;5041391;28;20026;-75
2022/09/14 10:59:43;;;;;;;17.65;15.88;;;17.90;99.90;;;;;;5032628;28;20040;-75
2022/09/14 11:02:31;;;;;;;17.52;15.55;;;17.80;99.90;;;;;;5036274;28;20029;-74
2022/09/14 11:05:22;;;;;;;19.33;16.25;;;17.90;99.90;;;;;;5017543;28;20064;-75
2022/09/14 11:08:11;;;;;;;16.73;15.02;;;18.00;99.90;;;;;;5048792;28;20031;-75
2022/09/14 11:10:36;;;;;;;17.10;15.13;;;17.80;99.90;;;;;;5046105;28;20514;-74
2022/09/14 11:13:29;;;;;;;16.83;14.52;;;17.80;99.90;;;;;;5042038;28;20043;-75
2022/09/14 11:16:04;;;;;;;14.90;13.20;;;17.80;99.90;;;;;;5038385;28;20030;-74
2022/09/14 11:18:42;;;;;;;14.48;12.98;;;17.70;99.90;;;;;;5035610;28;20091;-75
2022/09/14 11:21:37;;;;;;;15.35;13.75;;;17.70;99.90;;;;;;5037834;28;20083;-74
2022/09/14 11:24:16;;;;;;;14.52;12.10;;;17.80;99.90;;;;;;5042513;28;20025;-75
2022/09/14 11:26:53;;;;;;;14.30;11.55;;;17.80;99.90;;;;;;5037152;28;20135;-76
2022/09/14 11:29:31;;;;;;;12.15;10.95;;;17.70;99.90;;;;;;5038695;28;20037;-75
2022/09/14 11:32:35;;;;;;;12.98;11.65;;;17.90;99.90;;;;;;5043568;28;20026;-74
2022/09/14 11:35:24;;;;;;;12.93;11.55;;;17.70;99.90;;;;;;5038931;28;20048;-75
2022/09/14 11:37:53;;;;;;;13.60;12.20;;;17.80;99.90;;;;;;5036484;28;20033;-74
2022/09/14 11:40:28;;;;;;;12.80;11.50;;;18.10;99.90;;;;;;5050626;28;20021;-75
2022/09/14 11:42:59;;;;;;;12.25;11.05;;;18.00;99.90;;;;;;5038514;28;20029;-75
2022/09/14 11:45:33;;;;;;;12.18;10.93;;;18.20;99.90;;;;;;5038449;28;20079;-75
2022/09/14 11:48:28;;;;;;;12.75;11.18;;;18.40;99.90;;;;;;5039374;28;20017;-74
2022/09/14 11:51:05;;;;;;;13.05;10.93;;;18.50;99.90;;;;;;5037109;28;20046;-74
2022/09/14 11:53:32;;;;;;;10.30;9.18;;;19.10;99.90;;;;;;5045034;28;20112;-74
2022/09/14 11:55:59;;;;;;;10.23;9.07;;;19.50;99.90;;;;;;5038698;28;20084;-74
2022/09/14 11:58:28;;;;;;;10.82;8.80;;;18.90;99.90;;;;;;5044988;28;20055;-75
2022/09/14 12:01:24;;;;;;;11.23;10.00;;;19.00;99.90;;;;;;5050941;28;20025;-75
2022/09/14 12:04:10;;;;;;;11.80;9.52;;;18.70;99.90;;;;;;5050693;28;20022;-79
2022/09/14 12:06:38;;;;;;;10.75;9.20;;;18.50;99.90;;;;;;5047667;28;20021;-78
2022/09/14 12:09:17;;;;;;;10.25;9.23;;;18.50;99.90;;;;;;5044552;28;20088;-77
2022/09/14 12:11:50;;;;;;;11.45;9.70;;;18.70;99.90;;;;;;5049321;28;20022;-78
2022/09/14 12:14:29;;;;;;;9.05;8.25;;;19.00;99.90;;;;;;5035414;28;20129;-79
2022/09/14 12:17:04;;;;;;;8.98;7.90;;;18.70;99.90;;;;;;5047572;28;20025;-78
2022/09/14 12:19:31;;;;;;;8.82;8.02;;;19.00;99.90;;;;;;5050967;28;20031;-79
2022/09/14 12:22:33;;;;;;;9.88;8.40;;;18.90;99.90;;;;;;5052714;28;20029;-79
2022/09/14 12:25:02;;;;;;;10.45;9.38;;;18.80;99.90;;;;;;5040227;28;20025;-75
2022/09/14 12:27:34;;;;;;;11.18;10.18;;;18.50;99.90;;;;;;5039751;28;20071;-75
2022/09/14 12:30:00;;;;;;;11.10;9.90;;;18.80;99.90;;;;;;5039550;28;20036;-75
2022/09/14 12:32:27;;;;;;;11.00;9.80;;;18.80;99.90;;;;;;5039212;28;20034;-77
2022/09/14 12:35:35;;;;;;;12.32;10.48;;;18.80;99.90;;;;;;5045352;28;20021;-75
2022/09/14 12:38:38;;;;;;;10.15;9.15;;;18.90;99.90;;;;;;5037266;28;20037;-75
2022/09/14 12:41:09;;;;;;;10.50;9.40;;;18.90;99.90;;;;;;5065402;28;20018;-75
2022/09/14 12:43:35;;;;;;;10.68;8.82;;;18.90;99.90;;;;;;5040477;28;20029;-75
2022/09/14 12:46:18;;;;;;;10.38;9.18;;;19.10;99.90;;;;;;5046144;28;20104;-75
2022/09/14 12:48:47;;;;;;;11.25;9.18;;;19.10;99.90;;;;;;5045291;28;20037;-75
2022/09/14 12:54:02;;;;;;;9.82;8.75;;;18.90;99.90;;;;;;5038748;28;20037;-75
2022/09/14 12:56:47;;;;;;;12.13;9.23;;;19.00;99.90;;;;;;5041866;28;20026;-75
2022/09/14 12:59:51;;;;;;;9.93;8.95;;;18.80;99.90;;;;;;5050364;28;20482;-75